Terminal Aerodrome Forecast
Issued by NWS

Home | Current Version | Previous Version | Text Only | Print | Product List | Glossary On
Versions: 1 2 3 4 5 6 7 8 9 10 11 12 13 14
000
FTUS43 KAPX 171100
TAFAPN
TAF
KAPN 171120Z 1712/1812 13010KT P6SM OVC100
     FM171400 12015G24KT P6SM SCT060 BKN100
     FM180200 15006KT P6SM OVC040
     FM180700 27005KT P6SM BKN030 OVC050=

USA.gov is the U.S. government's official web portal to all federal, state and local government web resources and services.